Time;durP1;ratioP1;P1;durP2;ratioP2;P2;SDS_P1;SDS_P2;PMS_P1;PMS_P2;Temp;Humidity;BMP_temperature;BMP_pressure;BME280_temperature;BME280_humidity;BME280_pressure;Samples;Min_cycle;Max_cycle;Signal;HPM_P1;HPM_P2
2021/01/05 00:01:12;;;;;;;20.38;13.18;;;2.80;88.20;;;;;;5095105;28;20027;-76
2021/01/05 00:03:37;;;;;;;17.33;12.90;;;2.80;88.30;;;;;;5094633;28;20032;-73
2021/01/05 00:06:04;;;;;;;18.85;13.43;;;2.80;88.30;;;;;;5090397;28;20032;-73
2021/01/05 00:08:29;;;;;;;18.70;13.13;;;2.80;88.20;;;;;;5089265;28;20040;-75
2021/01/05 00:10:55;;;;;;;19.40;13.48;;;2.80;88.30;;;;;;5083167;28;20114;-73
2021/01/05 00:13:21;;;;;;;18.50;13.00;;;2.70;88.20;;;;;;5095122;28;20030;-73
2021/01/05 00:15:47;;;;;;;20.05;13.10;;;2.70;88.40;;;;;;5091652;28;20040;-73
2021/01/05 00:18:12;;;;;;;17.73;12.48;;;2.80;88.30;;;;;;5086445;28;20056;-75
2021/01/05 00:20:38;;;;;;;17.60;12.27;;;2.80;88.20;;;;;;5085026;28;20032;-74
2021/01/05 00:23:03;;;;;;;17.85;12.32;;;2.70;88.20;;;;;;5088924;28;20367;-74
2021/01/05 00:25:29;;;;;;;17.27;13.00;;;2.80;88.30;;;;;;5091857;28;20024;-77
2021/01/05 00:27:55;;;;;;;17.52;13.18;;;2.70;88.30;;;;;;5084374;28;20032;-74
2021/01/05 00:30:25;;;;;;;17.55;12.50;;;2.70;88.30;;;;;;5088951;28;20264;-74
2021/01/05 00:32:52;;;;;;;19.85;12.63;;;2.80;88.30;;;;;;5082696;28;20036;-75
2021/01/05 00:35:25;;;;;;;17.02;12.13;;;2.80;88.00;;;;;;5077089;28;20102;-74
2021/01/05 00:37:51;;;;;;;17.63;12.43;;;2.80;88.00;;;;;;5075759;28;20359;-74
2021/01/05 00:40:19;;;;;;;18.92;13.05;;;2.80;88.00;;;;;;5091498;28;20096;-77
2021/01/05 00:42:45;;;;;;;17.60;13.02;;;2.80;88.20;;;;;;5094412;28;20077;-74
2021/01/05 00:45:11;;;;;;;18.13;13.48;;;2.80;88.00;;;;;;5093430;28;20115;-74
2021/01/05 00:47:37;;;;;;;19.13;12.70;;;2.80;88.00;;;;;;5080441;28;20378;-74
2021/01/05 00:50:04;;;;;;;18.02;12.88;;;2.80;88.10;;;;;;5091861;28;20042;-78
2021/01/05 00:52:29;;;;;;;19.20;12.77;;;2.80;88.00;;;;;;5098365;28;20505;-73
2021/01/05 00:54:55;;;;;;;18.73;13.32;;;2.80;88.00;;;;;;5088637;28;20028;-73
2021/01/05 00:57:21;;;;;;;18.98;13.95;;;2.80;88.10;;;;;;5096525;28;20358;-73
2021/01/05 00:59:46;;;;;;;20.10;13.88;;;2.70;88.20;;;;;;5096983;28;20073;-74
2021/01/05 01:02:13;;;;;;;20.50;14.05;;;2.70;88.30;;;;;;5091815;28;20042;-74
2021/01/05 01:04:39;;;;;;;19.45;13.90;;;2.70;88.30;;;;;;5096412;28;20532;-72
2021/01/05 01:07:05;;;;;;;19.92;14.57;;;2.70;88.30;;;;;;5093769;28;20031;-74
2021/01/05 01:09:30;;;;;;;21.45;14.60;;;2.80;88.50;;;;;;5092853;28;20034;-74
2021/01/05 01:12:19;;;;;;;22.27;15.48;;;2.70;88.30;;;;;;5094626;28;20077;-74
2021/01/05 01:14:47;;;;;;;20.33;14.57;;;2.80;88.20;;;;;;5091281;28;20043;-74
2021/01/05 01:17:14;;;;;;;20.10;14.63;;;2.70;88.40;;;;;;5074835;28;20441;-75
2021/01/05 01:19:39;;;;;;;21.42;14.18;;;2.80;88.50;;;;;;5094161;28;20486;-75
2021/01/05 01:22:05;;;;;;;20.88;14.50;;;2.80;88.60;;;;;;5095347;28;20117;-74
2021/01/05 01:24:31;;;;;;;21.35;14.82;;;2.80;88.70;;;;;;5092125;28;20034;-74
2021/01/05 01:26:56;;;;;;;20.25;14.77;;;2.80;88.60;;;;;;5093225;28;20076;-74
2021/01/05 01:29:24;;;;;;;20.40;14.60;;;2.70;88.70;;;;;;5087273;28;20047;-74
2021/01/05 01:31:50;;;;;;;20.52;14.02;;;2.80;88.80;;;;;;5096362;28;20054;-74
2021/01/05 01:34:19;;;;;;;20.63;14.45;;;2.70;88.90;;;;;;5093858;28;20036;-74
2021/01/05 01:37:02;;;;;;;22.25;14.57;;;2.70;89.00;;;;;;5091054;28;20119;-73
2021/01/05 01:39:30;;;;;;;21.95;15.90;;;2.70;89.00;;;;;;5082066;28;20356;-74
2021/01/05 01:41:56;;;;;;;22.10;14.85;;;2.70;89.00;;;;;;5096034;28;20036;-75
2021/01/05 01:44:25;;;;;;;21.35;14.63;;;2.70;89.00;;;;;;5097590;28;20031;-74
2021/01/05 01:46:55;;;;;;;21.52;15.15;;;2.70;89.10;;;;;;5101482;28;20027;-73
2021/01/05 01:49:21;;;;;;;24.05;15.57;;;2.70;89.00;;;;;;5095955;28;20206;-73
2021/01/05 01:51:47;;;;;;;22.00;15.32;;;2.70;89.00;;;;;;5098213;28;20173;-73
2021/01/05 01:54:31;;;;;;;21.25;15.52;;;2.70;89.10;;;;;;5094511;28;20039;-73
2021/01/05 01:57:29;;;;;;;23.10;15.55;;;2.70;88.90;;;;;;5094768;28;20036;-75
2021/01/05 02:00:17;;;;;;;19.95;13.98;;;2.70;89.10;;;;;;5098827;28;20040;-73
2021/01/05 02:03:17;;;;;;;23.15;16.15;;;2.80;89.10;;;;;;5093078;28;20040;-73
2021/01/05 02:05:59;;;;;;;22.35;16.02;;;2.70;89.20;;;;;;5090995;28;20023;-73
2021/01/05 02:08:35;;;;;;;23.30;16.00;;;2.80;89.10;;;;;;5098546;28;20032;-73
2021/01/05 02:11:09;;;;;;;23.05;15.85;;;2.80;89.10;;;;;;5095601;28;20035;-75
2021/01/05 02:13:59;;;;;;;22.88;16.10;;;2.80;88.90;;;;;;5096253;28;20031;-74
2021/01/05 02:16:52;;;;;;;24.02;16.25;;;2.70;88.90;;;;;;5095480;28;20082;-73
2021/01/05 02:19:38;;;;;;;24.42;15.80;;;2.80;89.00;;;;;;5093459;28;20031;-73
2021/01/05 02:22:18;;;;;;;21.08;14.40;;;2.80;88.80;;;;;;5089000;28;20044;-73
2021/01/05 02:24:56;;;;;;;22.92;14.75;;;2.80;88.30;;;;;;5098384;28;20082;-74
2021/01/05 02:27:22;;;;;;;20.52;14.80;;;2.80;88.10;;;;;;5094018;28;20443;-72
2021/01/05 02:29:58;;;;;;;20.60;13.73;;;2.70;88.00;;;;;;5098796;28;20046;-75
2021/01/05 02:32:29;;;;;;;19.10;13.95;;;2.80;87.90;;;;;;5094548;28;20024;-73
2021/01/05 02:34:58;;;;;;;20.77;13.82;;;2.80;88.00;;;;;;5101969;28;20035;-72
2021/01/05 02:37:51;;;;;;;19.50;13.52;;;2.80;87.60;;;;;;5090463;28;20093;-76
2021/01/05 02:40:27;;;;;;;20.30;14.07;;;2.80;87.50;;;;;;5094010;28;20055;-72
2021/01/05 02:43:21;;;;;;;21.42;14.20;;;2.80;87.40;;;;;;5092484;28;20067;-74
2021/01/05 02:46:23;;;;;;;19.30;13.05;;;2.80;87.40;;;;;;5094973;28;20038;-72
2021/01/05 02:49:02;;;;;;;19.52;13.55;;;2.80;87.50;;;;;;5099647;28;20038;-75
2021/01/05 02:51:32;;;;;;;18.52;13.98;;;2.80;87.50;;;;;;5096986;28;20073;-75
2021/01/05 02:54:50;;;;;;;21.55;15.15;;;2.80;87.50;;;;;;5091161;28;20088;-72
2021/01/05 02:57:30;;;;;;;20.48;13.55;;;2.90;87.50;;;;;;5026053;28;20074;-75
2021/01/05 03:00:20;;;;;;;22.15;15.15;;;2.90;87.30;;;;;;5098377;28;20043;-74
2021/01/05 03:03:22;;;;;;;20.63;14.93;;;2.80;87.30;;;;;;5091587;28;20042;-74
2021/01/05 03:06:10;;;;;;;22.98;15.13;;;2.90;87.60;;;;;;5078227;28;20039;-72
2021/01/05 03:08:49;;;;;;;19.33;13.68;;;2.90;87.60;;;;;;5089904;28;20042;-74
2021/01/05 03:11:22;;;;;;;20.77;14.23;;;2.90;87.30;;;;;;5097691;28;20110;-73
2021/01/05 03:13:52;;;;;;;21.92;15.55;;;2.90;87.20;;;;;;5092230;28;20032;-74
2021/01/05 03:16:29;;;;;;;22.27;15.77;;;2.80;87.40;;;;;;5093340;28;20067;-72
2021/01/05 03:19:27;;;;;;;21.02;15.23;;;2.90;87.60;;;;;;5079750;28;20027;-71
2021/01/05 03:21:56;;;;;;;21.75;15.57;;;2.90;87.20;;;;;;5079564;28;20539;-72
2021/01/05 03:24:24;;;;;;;20.70;15.40;;;2.90;87.20;;;;;;5094411;28;20028;-72
2021/01/05 03:26:52;;;;;;;23.23;15.77;;;2.90;87.30;;;;;;5095174;28;20041;-73
2021/01/05 03:29:20;;;;;;;22.52;15.43;;;2.90;87.20;;;;;;5097376;28;20525;-73
2021/01/05 03:32:01;;;;;;;23.48;15.48;;;2.80;87.30;;;;;;5093396;28;20031;-72
2021/01/05 03:34:27;;;;;;;24.65;17.70;;;2.80;87.60;;;;;;5093919;28;20375;-72
2021/01/05 03:36:53;;;;;;;25.00;17.67;;;2.80;87.70;;;;;;5102770;28;20034;-74
2021/01/05 03:39:18;;;;;;;26.23;18.20;;;2.80;88.00;;;;;;5086781;28;20055;-75
2021/01/05 03:41:44;;;;;;;26.35;18.08;;;2.70;88.50;;;;;;5097358;28;20460;-78
2021/01/05 03:44:10;;;;;;;26.17;17.90;;;2.70;88.80;;;;;;5093536;28;20082;-74
2021/01/05 03:46:36;;;;;;;26.52;18.52;;;2.60;89.10;;;;;;5095317;28;20028;-74
2021/01/05 03:49:03;;;;;;;26.55;19.23;;;2.60;89.40;;;;;;5092391;28;20458;-73
2021/01/05 03:51:28;;;;;;;26.15;18.52;;;2.60;89.00;;;;;;5093146;28;20031;-74
2021/01/05 03:53:54;;;;;;;25.27;17.90;;;2.60;89.30;;;;;;5082356;28;20275;-71
2021/01/05 03:56:20;;;;;;;25.70;18.30;;;2.70;89.20;;;;;;5094280;28;20702;-73
2021/01/05 03:58:45;;;;;;;23.67;16.45;;;2.70;89.20;;;;;;5068521;28;20075;-73
2021/01/05 04:01:11;;;;;;;23.58;16.73;;;2.70;89.20;;;;;;5094351;28;20075;-72
2021/01/05 04:03:40;;;;;;;27.40;17.58;;;2.70;89.60;;;;;;5088823;28;20119;-74
2021/01/05 04:06:05;;;;;;;24.63;17.45;;;2.70;89.80;;;;;;5089706;28;20031;-74
2021/01/05 04:08:31;;;;;;;28.27;17.92;;;2.60;89.80;;;;;;5088175;28;20024;-75
2021/01/05 04:10:56;;;;;;;24.90;16.70;;;2.60;89.90;;;;;;5077024;28;20035;-72
2021/01/05 04:13:22;;;;;;;25.95;17.65;;;2.60;89.80;;;;;;5097712;28;20036;-74
2021/01/05 04:15:48;;;;;;;25.35;17.55;;;2.60;89.70;;;;;;5100421;28;20031;-74
2021/01/05 04:18:14;;;;;;;26.15;17.88;;;2.70;89.80;;;;;;5100787;28;20378;-74
2021/01/05 04:20:39;;;;;;;25.10;17.80;;;2.60;89.70;;;;;;5072554;28;20043;-75
2021/01/05 04:23:05;;;;;;;25.35;17.00;;;2.60;89.80;;;;;;5091896;28;20154;-72
2021/01/05 04:25:31;;;;;;;23.98;16.67;;;2.60;89.80;;;;;;5091670;28;20036;-72
2021/01/05 04:27:56;;;;;;;25.45;18.40;;;2.70;89.60;;;;;;5090479;28;20025;-73
2021/01/05 04:30:30;;;;;;;28.65;19.48;;;2.60;89.50;;;;;;5092577;28;20043;-75
2021/01/05 04:32:59;;;;;;;27.10;18.33;;;2.60;89.60;;;;;;5094006;28;20028;-73
2021/01/05 04:35:25;;;;;;;26.85;19.00;;;2.60;89.60;;;;;;5092442;28;20107;-72
2021/01/05 04:37:52;;;;;;;27.10;18.63;;;2.70;89.70;;;;;;5095177;28;20052;-72
2021/01/05 04:40:30;;;;;;;26.35;18.60;;;2.60;89.60;;;;;;5091496;28;20092;-72
2021/01/05 04:43:08;;;;;;;26.02;17.90;;;2.60;89.50;;;;;;5089560;28;20044;-78
2021/01/05 04:45:44;;;;;;;28.70;19.08;;;2.60;89.40;;;;;;5070816;28;20370;-74
2021/01/05 04:48:27;;;;;;;26.27;18.05;;;2.60;89.20;;;;;;5090415;28;20035;-74
2021/01/05 04:50:59;;;;;;;32.13;20.80;;;2.70;89.20;;;;;;5089184;28;20036;-74
2021/01/05 04:53:33;;;;;;;29.48;20.08;;;2.60;89.20;;;;;;5097253;28;20538;-74
2021/01/05 04:56:04;;;;;;;30.00;20.30;;;2.60;89.20;;;;;;5087785;28;20035;-75
2021/01/05 04:58:39;;;;;;;30.40;20.20;;;2.60;89.40;;;;;;5091008;28;20069;-74
2021/01/05 05:01:19;;;;;;;32.20;20.85;;;2.60;89.50;;;;;;5071504;28;20055;-74
2021/01/05 05:04:00;;;;;;;32.00;21.27;;;2.60;89.50;;;;;;5098573;28;20470;-75
2021/01/05 05:06:59;;;;;;;30.90;20.80;;;2.60;89.60;;;;;;5087312;28;20036;-75
2021/01/05 05:09:44;;;;;;;33.75;21.83;;;2.60;89.70;;;;;;5086802;28;20039;-74
2021/01/05 05:12:24;;;;;;;32.78;22.02;;;2.60;89.80;;;;;;5091562;28;20156;-75
2021/01/05 05:14:58;;;;;;;32.92;20.88;;;2.50;89.80;;;;;;5078400;28;20044;-75
2021/01/05 05:17:42;;;;;;;36.10;23.25;;;2.60;89.80;;;;;;5097432;28;20457;-75
2021/01/05 05:20:38;;;;;;;35.63;23.43;;;2.50;89.90;;;;;;5101129;28;20493;-75
2021/01/05 05:23:12;;;;;;;37.95;24.20;;;2.60;89.90;;;;;;5082190;28;20359;-74
2021/01/05 05:25:44;;;;;;;34.72;22.30;;;2.60;89.90;;;;;;5096391;28;20122;-74
2021/01/05 05:28:23;;;;;;;32.97;21.42;;;2.60;90.00;;;;;;5094269;28;20459;-74
2021/01/05 05:30:48;;;;;;;;;;;2.60;90.00;;;;;;5100601;28;20034;-75
2021/01/05 05:33:25;;;;;;;34.53;21.77;;;2.60;89.90;;;;;;5093577;28;19908;-72
2021/01/05 05:36:39;;;;;;;42.10;27.08;;;2.60;90.00;;;;;;5097721;28;20103;-74
2021/01/05 05:39:07;;;;;;;34.92;22.10;;;2.60;90.10;;;;;;5076582;28;20035;-75
2021/01/05 05:41:55;;;;;;;33.45;21.83;;;2.50;90.00;;;;;;5094778;28;20398;-76
2021/01/05 05:44:24;;;;;;;37.42;23.27;;;2.60;90.10;;;;;;5078823;28;20367;-74
2021/01/05 05:47:21;;;;;;;37.72;23.65;;;2.60;90.20;;;;;;5099658;28;20119;-74
2021/01/05 05:50:05;;;;;;;34.83;22.17;;;2.60;90.10;;;;;;5093723;28;20480;-75
2021/01/05 05:52:44;;;;;;;36.70;22.42;;;2.60;90.10;;;;;;5098505;28;20039;-74
2021/01/05 05:55:36;;;;;;;34.65;22.48;;;2.60;90.10;;;;;;5094827;28;20042;-78
2021/01/05 05:58:03;;;;;;;37.83;24.17;;;2.60;90.20;;;;;;5089394;28;20032;-74
2021/01/05 06:00:46;;;;;;;38.33;22.58;;;2.60;90.10;;;;;;5097691;28;20063;-74
2021/01/05 06:03:15;;;;;;;38.83;23.95;;;2.60;90.40;;;;;;5099967;28;20019;-74
2021/01/05 06:05:42;;;;;;;35.47;22.75;;;2.60;90.30;;;;;;5097689;28;20031;-77
2021/01/05 06:08:10;;;;;;;37.97;23.23;;;2.60;90.20;;;;;;5087979;28;20036;-73
2021/01/05 06:10:36;;;;;;;38.97;23.75;;;2.60;90.30;;;;;;5099036;28;20031;-73
2021/01/05 06:13:02;;;;;;;43.08;26.13;;;2.60;90.40;;;;;;5091432;28;20105;-76
2021/01/05 06:15:31;;;;;;;39.90;25.45;;;2.60;90.50;;;;;;5095162;28;20115;-74
2021/01/05 06:17:56;;;;;;;39.70;25.80;;;2.60;90.40;;;;;;5101023;28;20114;-74
2021/01/05 06:20:22;;;;;;;39.65;25.02;;;2.60;90.50;;;;;;5092907;28;20122;-73
2021/01/05 06:22:48;;;;;;;40.17;25.02;;;2.60;90.50;;;;;;5093911;28;20116;-74
2021/01/05 06:25:15;;;;;;;42.42;25.00;;;2.60;90.50;;;;;;5101996;28;20024;-73
2021/01/05 06:27:40;;;;;;;37.33;23.63;;;2.60;90.40;;;;;;5093366;28;20500;-73
2021/01/05 06:30:07;;;;;;;38.58;24.60;;;2.60;90.30;;;;;;5088645;28;20055;-74
2021/01/05 06:32:33;;;;;;;40.92;26.15;;;2.60;90.50;;;;;;5099624;28;20020;-73
2021/01/05 06:34:59;;;;;;;39.83;24.55;;;2.60;90.40;;;;;;5096062;28;20028;-75
2021/01/05 06:37:25;;;;;;;39.10;24.60;;;2.60;90.40;;;;;;5092681;28;20036;-75
2021/01/05 06:39:50;;;;;;;39.22;24.45;;;2.60;90.20;;;;;;5103105;28;20043;-76
2021/01/05 06:42:16;;;;;;;37.15;24.00;;;2.60;90.30;;;;;;5103146;28;20032;-73
2021/01/05 06:44:43;;;;;;;41.40;24.70;;;2.60;90.30;;;;;;5097018;28;20075;-74
2021/01/05 06:47:09;;;;;;;43.95;26.92;;;2.60;90.30;;;;;;5091560;28;20027;-74
2021/01/05 06:49:36;;;;;;;42.55;26.75;;;2.60;90.30;;;;;;5096479;28;20062;-74
2021/01/05 06:52:04;;;;;;;40.00;24.65;;;2.60;90.30;;;;;;5093349;28;20032;-74
2021/01/05 06:54:30;;;;;;;42.97;26.27;;;2.60;90.30;;;;;;5093523;28;20026;-74
2021/01/05 06:56:57;;;;;;;44.42;26.90;;;2.60;90.30;;;;;;5093119;28;20123;-76
2021/01/05 06:59:23;;;;;;;46.85;27.80;;;2.60;90.20;;;;;;5097260;28;20067;-75
2021/01/05 07:01:50;;;;;;;42.05;25.45;;;2.60;90.40;;;;;;5095488;28;20043;-74
2021/01/05 07:04:16;;;;;;;42.20;25.85;;;2.60;90.40;;;;;;5092111;28;20032;-76
2021/01/05 07:06:42;;;;;;;45.33;27.33;;;2.60;90.40;;;;;;5093970;28;20055;-74
2021/01/05 07:09:07;;;;;;;46.47;28.10;;;2.60;90.40;;;;;;5092159;28;20458;-75
2021/01/05 07:11:33;;;;;;;44.08;27.25;;;2.60;90.30;;;;;;5090805;28;20024;-74
2021/01/05 07:13:59;;;;;;;46.15;26.85;;;2.60;90.20;;;;;;5095847;28;20040;-73
2021/01/05 07:16:24;;;;;;;44.03;27.85;;;2.60;90.20;;;;;;5099552;28;20131;-75
2021/01/05 07:18:50;;;;;;;48.65;28.55;;;2.60;90.00;;;;;;5100015;28;20039;-77
2021/01/05 07:21:15;;;;;;;48.05;28.52;;;2.60;90.10;;;;;;5090702;28;20131;-74
2021/01/05 07:23:41;;;;;;;44.92;27.27;;;2.60;90.10;;;;;;5097637;28;20027;-75
2021/01/05 07:26:07;;;;;;;43.00;26.00;;;2.60;90.10;;;;;;5076664;28;20040;-75
2021/01/05 07:28:32;;;;;;;47.70;27.80;;;2.60;89.80;;;;;;5100767;28;20092;-74
2021/01/05 07:30:58;;;;;;;42.80;26.10;;;2.60;89.60;;;;;;5096593;28;20040;-74
2021/01/05 07:33:23;;;;;;;44.22;28.23;;;2.60;89.60;;;;;;5093811;28;20350;-74
2021/01/05 07:35:49;;;;;;;43.38;28.10;;;2.70;89.50;;;;;;5093752;28;20467;-75
2021/01/05 07:38:15;;;;;;;41.92;25.58;;;2.70;89.40;;;;;;5087116;28;20150;-75
2021/01/05 07:40:40;;;;;;;40.53;25.92;;;2.70;89.10;;;;;;5095623;28;20039;-77
2021/01/05 07:43:06;;;;;;;39.85;24.80;;;2.70;89.30;;;;;;5091738;28;20020;-75
2021/01/05 07:45:32;;;;;;;40.60;25.42;;;2.70;89.10;;;;;;5099178;28;20028;-74
2021/01/05 07:47:57;;;;;;;41.67;25.38;;;2.70;89.00;;;;;;5091422;28;20043;-74
2021/01/05 07:50:25;;;;;;;43.80;26.55;;;2.70;89.10;;;;;;5074806;28;20046;-74
2021/01/05 07:52:52;;;;;;;42.63;26.23;;;2.70;88.90;;;;;;5089536;28;20493;-75
2021/01/05 07:55:19;;;;;;;40.13;25.50;;;2.70;88.90;;;;;;5090063;28;20043;-74
2021/01/05 07:57:45;;;;;;;42.10;25.70;;;2.70;88.90;;;;;;5096459;28;20024;-75
2021/01/05 08:00:17;;;;;;;40.42;25.38;;;2.70;89.10;;;;;;5089257;28;20036;-75
2021/01/05 08:02:43;;;;;;;45.88;26.65;;;2.70;89.00;;;;;;5090017;28;20059;-74
2021/01/05 08:05:20;;;;;;;42.08;26.20;;;2.70;89.00;;;;;;5092183;28;20039;-77
2021/01/05 08:07:46;;;;;;;44.33;27.77;;;2.70;89.10;;;;;;5099767;28;20458;-74
2021/01/05 08:10:33;;;;;;;42.75;27.63;;;2.70;89.00;;;;;;5097284;28;20035;-78
2021/01/05 08:13:00;;;;;;;43.78;27.15;;;2.80;88.90;;;;;;5088637;28;20466;-74
2021/01/05 08:15:29;;;;;;;42.45;26.23;;;2.70;89.00;;;;;;5090468;28;20028;-74
2021/01/05 08:17:55;;;;;;;43.97;27.15;;;2.70;89.00;;;;;;5089708;28;20032;-75
2021/01/05 08:20:24;;;;;;;41.42;25.58;;;2.70;89.00;;;;;;5092899;28;20066;-76
2021/01/05 08:22:50;;;;;;;42.42;28.42;;;2.80;89.10;;;;;;5071356;28;20039;-75
2021/01/05 08:25:17;;;;;;;43.58;26.65;;;2.70;89.00;;;;;;5094534;28;20028;-75
2021/01/05 08:27:47;;;;;;;43.70;27.55;;;2.70;88.80;;;;;;5089397;28;20043;-77
2021/01/05 08:30:20;;;;;;;43.00;26.73;;;2.70;89.00;;;;;;5075287;28;20111;-73
2021/01/05 08:32:46;;;;;;;45.38;27.27;;;2.70;89.00;;;;;;5098366;28;20069;-75
2021/01/05 08:35:13;;;;;;;43.63;27.55;;;2.70;89.10;;;;;;5091822;28;20024;-75
2021/01/05 08:37:39;;;;;;;40.20;25.52;;;2.70;88.90;;;;;;5096271;28;20051;-73
2021/01/05 08:40:10;;;;;;;44.63;26.60;;;2.70;89.00;;;;;;5091265;28;20036;-73
2021/01/05 08:42:36;;;;;;;42.30;26.58;;;2.80;89.00;;;;;;5093000;28;20028;-73
2021/01/05 08:45:03;;;;;;;40.45;26.17;;;2.70;88.80;;;;;;5096986;28;20032;-73
2021/01/05 08:47:29;;;;;;;42.35;27.45;;;2.70;89.00;;;;;;5090471;28;20098;-72
2021/01/05 08:49:55;;;;;;;42.85;27.52;;;2.70;88.80;;;;;;5092765;28;20039;-73
2021/01/05 08:52:20;;;;;;;42.67;27.02;;;2.80;88.70;;;;;;5091857;28;20048;-74
2021/01/05 08:54:46;;;;;;;41.63;27.77;;;2.80;88.70;;;;;;5089147;28;20027;-73
2021/01/05 08:57:15;;;;;;;43.40;27.05;;;2.80;88.80;;;;;;5091215;28;20036;-73
2021/01/05 08:59:42;;;;;;;39.28;25.08;;;2.90;88.60;;;;;;5099172;28;20047;-72
2021/01/05 09:02:08;;;;;;;39.58;26.42;;;2.90;88.50;;;;;;5088419;28;20090;-72
2021/01/05 09:04:35;;;;;;;41.13;26.10;;;2.80;88.20;;;;;;5094535;28;20028;-74
2021/01/05 09:07:01;;;;;;;39.88;24.40;;;2.90;88.30;;;;;;5097720;28;20044;-75
2021/01/05 09:09:27;;;;;;;40.72;26.23;;;2.80;88.40;;;;;;5095923;28;20024;-73
2021/01/05 09:11:57;;;;;;;41.33;27.00;;;2.90;88.20;;;;;;5093496;28;20036;-74
2021/01/05 09:14:24;;;;;;;39.58;26.05;;;2.90;88.00;;;;;;5092939;28;20025;-73
2021/01/05 09:17:00;;;;;;;36.80;24.27;;;2.90;88.20;;;;;;5094927;28;20530;-75
2021/01/05 09:19:27;;;;;;;36.65;25.00;;;2.90;88.10;;;;;;5092885;28;20058;-73
2021/01/05 09:21:52;;;;;;;38.55;24.92;;;3.00;88.00;;;;;;5096876;28;20037;-73
2021/01/05 09:24:18;;;;;;;39.45;24.63;;;2.90;88.00;;;;;;5097308;28;20051;-70
2021/01/05 09:26:44;;;;;;;38.55;24.83;;;2.90;88.10;;;;;;5076053;28;20034;-71
2021/01/05 09:29:11;;;;;;;39.75;25.67;;;2.90;88.00;;;;;;5089799;28;20040;-74
2021/01/05 09:31:45;;;;;;;35.17;23.08;;;3.00;88.00;;;;;;5095239;28;20020;-71
2021/01/05 09:34:13;;;;;;;41.73;26.23;;;3.00;88.10;;;;;;5094679;28;20040;-72
2021/01/05 09:36:40;;;;;;;38.10;23.85;;;3.00;87.80;;;;;;5073604;28;20027;-72
2021/01/05 09:39:12;;;;;;;37.58;24.80;;;3.00;88.00;;;;;;5088358;28;20036;-72
2021/01/05 09:41:41;;;;;;;40.40;24.73;;;3.00;88.00;;;;;;5091918;28;20038;-71
2021/01/05 09:44:08;;;;;;;40.80;25.92;;;3.00;87.70;;;;;;5092000;28;20512;-73
2021/01/05 09:46:34;;;;;;;41.15;26.10;;;3.00;88.00;;;;;;5091051;28;20028;-72
2021/01/05 09:49:00;;;;;;;44.08;26.95;;;3.00;88.00;;;;;;5094685;28;20064;-71
2021/01/05 09:51:31;;;;;;;43.20;26.60;;;3.00;87.90;;;;;;5092259;28;20431;-72
2021/01/05 09:53:57;;;;;;;42.58;26.63;;;3.00;87.90;;;;;;5095828;28;20107;-71
2021/01/05 09:56:23;;;;;;;43.92;27.23;;;3.00;87.70;;;;;;5093179;28;20047;-71
2021/01/05 09:58:49;;;;;;;39.92;25.83;;;3.00;87.90;;;;;;5080608;28;20019;-76
2021/01/05 10:01:22;;;;;;;44.17;28.17;;;3.00;88.00;;;;;;5095388;28;20101;-71
2021/01/05 10:03:48;;;;;;;44.70;27.85;;;3.00;87.90;;;;;;5098107;28;20039;-71
2021/01/05 10:06:13;;;;;;;43.75;28.60;;;3.10;87.50;;;;;;5077288;28;20028;-72
2021/01/05 10:08:39;;;;;;;44.72;28.30;;;3.10;87.70;;;;;;5096956;28;20126;-72
2021/01/05 10:11:05;;;;;;;44.03;27.30;;;3.00;87.80;;;;;;5091466;28;20028;-73
2021/01/05 10:13:30;;;;;;;44.42;28.35;;;3.10;88.00;;;;;;5099458;28;20423;-72
2021/01/05 10:15:56;;;;;;;44.80;27.40;;;3.10;87.90;;;;;;5097597;28;20029;-72
2021/01/05 10:18:21;;;;;;;43.58;27.13;;;3.10;87.60;;;;;;5093069;28;20066;-72
2021/01/05 10:20:49;;;;;;;42.58;26.95;;;3.10;87.60;;;;;;5096919;28;20084;-73
2021/01/05 10:23:14;;;;;;;41.53;26.58;;;3.10;87.90;;;;;;5095216;28;20034;-72
2021/01/05 10:25:40;;;;;;;43.70;26.05;;;3.10;87.90;;;;;;5078978;28;20135;-72
2021/01/05 10:28:06;;;;;;;41.28;27.75;;;3.10;87.80;;;;;;5088600;28;20019;-72
2021/01/05 10:30:31;;;;;;;45.17;28.25;;;3.10;87.80;;;;;;5097220;28;20044;-72
2021/01/05 10:32:57;;;;;;;44.72;28.48;;;3.10;87.70;;;;;;5094970;28;20036;-72
2021/01/05 10:35:23;;;;;;;42.45;27.60;;;3.10;87.70;;;;;;5093151;28;20455;-72
2021/01/05 10:37:50;;;;;;;42.72;26.63;;;3.10;87.70;;;;;;5091731;28;20542;-72
2021/01/05 10:40:17;;;;;;;45.03;28.42;;;3.10;87.60;;;;;;5100161;28;20035;-72
2021/01/05 10:42:49;;;;;;;48.30;28.20;;;3.10;87.90;;;;;;5097497;28;20036;-73
2021/01/05 10:45:21;;;;;;;45.53;29.17;;;3.10;87.90;;;;;;5090422;28;20028;-72
2021/01/05 10:47:47;;;;;;;46.47;28.17;;;3.10;87.90;;;;;;5095079;28;20024;-70
2021/01/05 10:50:17;;;;;;;47.80;29.25;;;3.10;87.70;;;;;;5074051;28;20060;-72
2021/01/05 10:52:45;;;;;;;46.65;30.65;;;3.10;87.70;;;;;;5099897;28;20407;-73
2021/01/05 10:55:12;;;;;;;45.38;29.02;;;3.10;87.60;;;;;;5094563;28;20027;-71
2021/01/05 10:57:37;;;;;;;47.83;29.13;;;3.10;87.40;;;;;;5093976;28;20452;-72
2021/01/05 11:00:04;;;;;;;47.33;30.08;;;3.10;87.60;;;;;;5095243;28;20173;-72
2021/01/05 11:02:30;;;;;;;46.25;28.58;;;3.10;87.50;;;;;;5097347;28;20030;-71
2021/01/05 11:04:55;;;;;;;62.90;36.22;;;3.10;87.40;;;;;;5091564;28;20458;-72
2021/01/05 11:07:21;;;;;;;47.58;28.40;;;3.10;87.50;;;;;;5099622;28;20039;-72
2021/01/05 11:09:47;;;;;;;44.90;27.55;;;3.10;87.50;;;;;;5093586;28;20508;-72
2021/01/05 11:12:19;;;;;;;44.30;26.70;;;3.10;87.40;;;;;;5092483;28;20032;-72
2021/01/05 11:14:45;;;;;;;43.28;26.27;;;3.10;87.60;;;;;;5101024;28;20118;-72
2021/01/05 11:17:10;;;;;;;39.05;26.45;;;3.10;87.70;;;;;;5096965;28;20505;-72
2021/01/05 11:19:37;;;;;;;42.42;26.40;;;3.10;87.70;;;;;;5090804;28;20040;-71
2021/01/05 11:22:08;;;;;;;43.10;26.88;;;3.10;87.80;;;;;;5080511;28;20024;-73
2021/01/05 11:24:35;;;;;;;47.00;28.13;;;3.10;87.60;;;;;;5097022;28;20035;-73
2021/01/05 11:27:03;;;;;;;43.70;28.42;;;3.20;87.60;;;;;;5077336;28;20374;-72
2021/01/05 11:29:28;;;;;;;45.97;27.90;;;3.10;87.50;;;;;;5093449;28;20051;-73
2021/01/05 11:31:57;;;;;;;46.50;28.92;;;3.20;87.60;;;;;;5098074;28;20033;-75
2021/01/05 11:34:23;;;;;;;44.38;27.10;;;3.20;87.40;;;;;;5094557;28;20028;-72
2021/01/05 11:36:50;;;;;;;45.13;27.55;;;3.10;87.40;;;;;;5093891;28;20119;-73
2021/01/05 11:39:16;;;;;;;43.97;27.85;;;3.10;87.40;;;;;;5091887;28;20044;-73
2021/01/05 11:41:45;;;;;;;41.75;25.38;;;3.10;87.40;;;;;;5090293;28;20043;-73
2021/01/05 11:44:12;;;;;;;42.50;25.42;;;3.10;87.20;;;;;;5097956;28;20043;-73
2021/01/05 11:46:38;;;;;;;42.00;24.48;;;3.20;87.40;;;;;;5076993;28;20400;-72
2021/01/05 11:49:03;;;;;;;40.47;24.90;;;3.10;87.30;;;;;;5093496;28;20054;-74
2021/01/05 11:51:33;;;;;;;40.10;23.88;;;3.10;87.40;;;;;;5091142;28;20055;-73
2021/01/05 11:53:59;;;;;;;40.40;26.20;;;3.20;87.40;;;;;;5097724;28;20043;-74
2021/01/05 11:56:28;;;;;;;39.35;24.02;;;3.20;87.30;;;;;;5094769;28;20104;-74
2021/01/05 11:58:54;;;;;;;37.42;24.55;;;3.20;87.40;;;;;;5089621;28;20046;-72
2021/01/05 12:01:20;;;;;;;41.10;25.08;;;3.20;87.40;;;;;;5087289;28;20046;-73
2021/01/05 12:03:45;;;;;;;39.65;25.67;;;3.30;87.30;;;;;;5095326;28;20040;-73
2021/01/05 12:06:17;;;;;;;42.05;27.02;;;3.30;87.10;;;;;;5092740;28;20077;-76
2021/01/05 12:08:43;;;;;;;45.83;29.27;;;3.30;87.30;;;;;;5098875;28;20024;-73
2021/01/05 12:11:25;;;;;;;44.63;28.52;;;3.30;87.10;;;;;;5089902;28;20048;-76
2021/01/05 12:13:51;;;;;;;43.30;27.08;;;3.20;87.30;;;;;;5092511;28;20024;-71
2021/01/05 12:16:34;;;;;;;41.67;26.75;;;3.20;87.20;;;;;;5094404;28;20051;-74
2021/01/05 12:19:01;;;;;;;40.92;25.90;;;3.20;87.40;;;;;;5094278;28;20375;-73
2021/01/05 12:21:37;;;;;;;42.35;26.00;;;3.20;87.40;;;;;;5093912;28;20367;-72
2021/01/05 12:24:06;;;;;;;40.47;26.70;;;3.20;87.30;;;;;;5050819;28;20501;-77
2021/01/05 12:26:37;;;;;;;40.38;25.05;;;3.10;87.40;;;;;;5072446;28;20052;-73
2021/01/05 12:29:06;;;;;;;70.53;37.45;;;3.20;87.50;;;;;;5078183;28;20127;-75
2021/01/05 12:31:42;;;;;;;37.35;23.48;;;3.20;87.60;;;;;;5072279;28;20040;-72
2021/01/05 12:34:08;;;;;;;41.33;25.15;;;3.20;87.30;;;;;;5084354;28;20081;-75
2021/01/05 12:36:38;;;;;;;32.30;21.50;;;3.20;87.30;;;;;;5082093;28;20092;-71
2021/01/05 12:39:05;;;;;;;33.67;23.00;;;3.20;87.60;;;;;;5085245;28;20074;-72
2021/01/05 12:41:36;;;;;;;39.55;23.52;;;3.20;87.70;;;;;;5078103;28;20459;-72
2021/01/05 12:44:04;;;;;;;36.92;22.88;;;3.10;88.00;;;;;;5082020;28;20050;-72
2021/01/05 12:46:33;;;;;;;39.15;24.00;;;3.20;87.80;;;;;;5080330;28;20378;-71
2021/01/05 12:48:59;;;;;;;37.20;23.33;;;3.20;87.80;;;;;;5084788;28;20509;-74
2021/01/05 12:51:30;;;;;;;42.03;25.20;;;3.20;87.90;;;;;;5065913;28;20416;-72
2021/01/05 12:53:56;;;;;;;39.13;23.60;;;3.20;87.80;;;;;;5082877;28;20371;-75